Time;durP1;ratioP1;P1;durP2;ratioP2;P2;SDS_P1;SDS_P2;PMS_P1;PMS_P2;Temp;Humidity;BMP_temperature;BMP_pressure;BME280_temperature;BME280_humidity;BME280_pressure;Samples;Min_cycle;Max_cycle;Signal;HPM_P1;HPM_P2
2021/07/02 00:01:39;;;;;;;15.00;7.07;;;21.90;68.40;;;;;;20833956;28;20065;-19
2021/07/02 00:11:40;;;;;;;10.68;4.65;;;21.90;68.50;;;;;;20836767;28;20061;-20
2021/07/02 00:21:43;;;;;;;14.50;6.78;;;21.80;68.40;;;;;;20835993;28;20025;-20
2021/07/02 00:31:44;;;;;;;12.18;6.63;;;21.90;68.50;;;;;;20835431;28;20464;-19
2021/07/02 00:41:44;;;;;;;13.63;6.78;;;21.80;68.40;;;;;;20835191;28;20028;-20
2021/07/02 00:51:45;;;;;;;8.60;5.63;;;21.80;68.40;;;;;;20833409;28;20029;-20
2021/07/02 01:01:45;;;;;;;12.65;6.72;;;21.80;68.40;;;;;;20832783;28;20037;-20
2021/07/02 01:11:46;;;;;;;13.15;7.03;;;21.80;68.30;;;;;;20831983;28;20068;-20
2021/07/02 01:21:46;;;;;;;12.77;6.97;;;21.80;68.30;;;;;;20831290;28;20048;-21
2021/07/02 01:31:47;;;;;;;14.10;7.72;;;21.80;68.30;;;;;;20788607;28;20041;-21
2021/07/02 01:41:48;;;;;;;11.47;7.03;;;21.80;68.40;;;;;;20828143;28;20057;-19
2021/07/02 01:51:49;;;;;;;13.93;7.38;;;21.80;68.20;;;;;;20818617;28;20874;-19
2021/07/02 02:01:49;;;;;;;13.48;7.30;;;21.70;68.10;;;;;;20800135;28;20092;-19
2021/07/02 02:11:50;;;;;;;10.70;7.30;;;21.80;68.20;;;;;;20816527;28;20061;-19
2021/07/02 02:21:51;;;;;;;12.38;7.85;;;21.70;68.10;;;;;;20815975;28;20030;-19
2021/07/02 02:31:52;;;;;;;11.05;7.68;;;21.70;68.10;;;;;;20823450;28;20093;-19
2021/07/02 02:41:53;;;;;;;11.95;8.10;;;21.70;68.10;;;;;;20821044;28;20041;-19
2021/07/02 02:51:53;;;;;;;12.35;7.90;;;21.70;68.10;;;;;;20824010;28;20030;-20
2021/07/02 03:01:54;;;;;;;13.30;8.40;;;21.70;68.00;;;;;;20834397;28;20045;-20
2021/07/02 03:11:55;;;;;;;16.23;7.80;;;21.60;68.00;;;;;;20832842;28;20091;-20
2021/07/02 03:21:55;;;;;;;10.55;7.47;;;21.70;68.00;;;;;;20827469;28;20113;-19
2021/07/02 03:31:56;;;;;;;15.40;8.23;;;21.60;67.90;;;;;;20820507;28;20063;-20
2021/07/02 03:41:57;;;;;;;11.07;7.22;;;21.60;67.90;;;;;;20820410;28;20060;-19
2021/07/02 03:51:57;;;;;;;16.00;7.85;;;21.60;67.90;;;;;;20818249;28;20034;-19
2021/07/02 04:01:58;;;;;;;15.87;8.03;;;21.60;67.80;;;;;;20818744;28;20408;-19
2021/07/02 04:11:59;;;;;;;12.93;8.10;;;21.60;67.80;;;;;;20801363;28;20513;-19
2021/07/02 04:22:00;;;;;;;14.10;8.15;;;21.60;67.70;;;;;;20820711;28;20034;-19
2021/07/02 04:32:01;;;;;;;13.13;8.15;;;21.60;67.70;;;;;;20818872;28;20072;-20
2021/07/02 04:42:01;;;;;;;10.20;7.50;;;21.60;67.70;;;;;;20817746;28;20026;-20
2021/07/02 04:52:02;;;;;;;14.33;8.13;;;21.60;67.60;;;;;;20829808;28;20060;-20
2021/07/02 05:02:06;;;;;;;14.15;8.48;;;21.60;67.60;;;;;;20832663;28;20519;-19
2021/07/02 05:12:10;;;;;;;14.30;7.78;;;21.50;68.00;;;;;;20830311;28;20042;-20
2021/07/02 05:22:14;;;;;;;10.70;7.10;;;21.50;67.50;;;;;;20827131;28;20037;-20
2021/07/02 05:32:14;;;;;;;19.95;7.70;;;21.50;67.40;;;;;;20828254;28;20387;-19
2021/07/02 05:42:21;;;;;;;10.43;7.82;;;21.50;67.40;;;;;;20827690;28;20056;-20
2021/07/02 05:52:21;;;;;;;11.70;7.15;;;21.50;67.40;;;;;;20818696;28;20069;-19
2021/07/02 06:02:22;;;;;;;13.75;7.18;;;21.50;67.30;;;;;;20853761;28;20472;-20
2021/07/02 06:12:23;;;;;;;21.88;8.98;;;21.60;67.20;;;;;;20849685;28;20586;-21
2021/07/02 06:22:23;;;;;;;18.73;9.45;;;21.50;67.00;;;;;;20853967;28;20502;-20
2021/07/02 06:32:24;;;;;;;24.97;13.13;;;21.40;67.00;;;;;;20829893;28;20612;-20
2021/07/02 06:42:25;;;;;;;25.38;12.25;;;21.50;66.30;;;;;;20824408;28;20502;-20
2021/07/02 06:52:25;;;;;;;26.38;10.63;;;21.40;66.20;;;;;;20822780;28;20033;-20
2021/07/02 07:02:26;;;;;;;20.17;12.07;;;21.40;66.30;;;;;;20822333;28;20070;-20
2021/07/02 07:12:26;;;;;;;17.63;10.13;;;21.30;66.20;;;;;;20842759;22;20128;-20
2021/07/02 07:22:27;;;;;;;23.23;11.27;;;21.40;66.60;;;;;;20820386;28;20021;-19
2021/07/02 07:32:28;;;;;;;20.95;10.38;;;21.50;66.60;;;;;;20812236;28;20026;-20
2021/07/02 07:42:28;;;;;;;16.48;9.98;;;21.60;66.50;;;;;;20794175;28;20052;-20
2021/07/02 08:02:45;;;;;;;13.60;8.75;;;21.60;66.60;;;;;;20819065;28;20024;-19
2021/07/02 08:12:46;;;;;;;17.88;9.65;;;21.60;66.60;;;;;;20800464;28;20038;-20
2021/07/02 08:22:47;;;;;;;19.38;10.65;;;21.60;66.60;;;;;;20821145;28;20040;-20
2021/07/02 08:32:48;;;;;;;18.30;8.93;;;21.60;66.60;;;;;;20817557;28;20033;-20
2021/07/02 08:42:49;;;;;;;14.77;9.02;;;21.60;66.50;;;;;;20787507;28;20065;-20
2021/07/02 08:52:50;;;;;;;18.75;9.50;;;21.70;66.40;;;;;;20828297;28;20094;-21
2021/07/02 09:02:51;;;;;;;10.75;7.75;;;21.70;66.40;;;;;;20828613;28;20180;-19
2021/07/02 09:12:52;;;;;;;13.25;8.70;;;21.60;66.30;;;;;;20811641;28;20071;-20
2021/07/02 09:22:58;;;;;;;15.07;8.50;;;21.60;66.10;;;;;;20790629;28;20131;-20
2021/07/02 09:33:02;;;;;;;10.90;8.05;;;21.70;66.10;;;;;;20787681;28;20045;-19
2021/07/02 09:43:04;;;;;;;11.80;8.10;;;21.70;66.00;;;;;;20826651;28;20459;-20
2021/07/02 09:53:09;;;;;;;11.50;7.07;;;21.70;65.70;;;;;;20825720;28;20025;-20
2021/07/02 10:03:11;;;;;;;11.38;8.10;;;21.70;65.60;;;;;;20811735;28;20040;-19
2021/07/02 10:13:11;;;;;;;12.00;7.63;;;21.70;65.70;;;;;;20805112;28;20029;-20
2021/07/02 10:23:24;;;;;;;12.05;8.05;;;21.80;65.70;;;;;;20814856;28;20144;-21
2021/07/02 10:33:28;;;;;;;13.15;7.60;;;21.70;65.50;;;;;;20821464;28;20512;-19
2021/07/02 10:43:28;;;;;;;8.57;6.75;;;21.70;65.50;;;;;;20820744;28;20246;-19
2021/07/02 10:53:30;;;;;;;12.93;7.45;;;21.70;65.50;;;;;;20820069;28;20487;-20
2021/07/02 11:03:31;;;;;;;8.00;6.40;;;21.80;65.40;;;;;;20819571;28;20038;-20
2021/07/02 11:14:10;;;;;;;8.32;6.30;;;21.70;65.30;;;;;;20817733;28;20030;-19
2021/07/02 11:24:11;;;;;;;8.18;6.28;;;21.80;65.30;;;;;;20777108;28;20025;-19
2021/07/02 11:34:13;;;;;;;9.27;6.70;;;21.80;65.30;;;;;;20792313;28;20545;-20
2021/07/02 11:44:14;;;;;;;7.43;6.30;;;21.80;65.20;;;;;;20817840;28;20030;-19
2021/07/02 11:54:15;;;;;;;7.28;6.07;;;21.80;65.30;;;;;;20803966;28;20041;-19
2021/07/02 12:04:20;;;;;;;7.25;5.93;;;21.80;65.20;;;;;;20816622;28;20116;-19
2021/07/02 12:14:35;;;;;;;10.35;6.57;;;21.80;65.40;;;;;;20817904;28;20032;-20
2021/07/02 12:24:47;;;;;;;8.32;6.28;;;21.80;65.20;;;;;;20827829;28;20053;-20
2021/07/02 12:34:50;;;;;;;8.82;6.93;;;21.80;65.20;;;;;;20828823;28;20041;-20
2021/07/02 12:44:52;;;;;;;8.45;7.10;;;21.90;65.30;;;;;;20819644;28;20041;-20
2021/07/02 12:55:08;;;;;;;7.75;5.97;;;21.80;65.10;;;;;;20817215;28;20503;-20
2021/07/02 13:05:25;;;;;;;8.00;7.18;;;21.80;65.10;;;;;;20818825;28;20029;-20
2021/07/02 13:15:25;;;;;;;10.35;7.25;;;21.80;65.40;;;;;;20869928;22;20045;-20
2021/07/02 13:25:26;;;;;;;8.73;6.90;;;21.70;65.40;;;;;;20831738;28;20022;-20
2021/07/02 13:35:27;;;;;;;7.65;6.80;;;21.80;65.40;;;;;;20831175;28;20804;-21
2021/07/02 13:45:28;;;;;;;18.92;9.50;;;21.80;65.30;;;;;;20830368;28;20112;-21
2021/07/02 13:55:28;;;;;;;18.88;8.43;;;21.90;65.10;;;;;;20830382;28;20056;-21
2021/07/02 14:05:29;;;;;;;24.73;9.63;;;22.10;65.20;;;;;;20829173;28;20557;-20
2021/07/02 14:15:30;;;;;;;23.83;9.60;;;22.10;65.30;;;;;;20813274;28;20480;-21
2021/07/02 14:25:31;;;;;;;24.45;10.20;;;22.10;65.40;;;;;;20823525;28;20502;-21
2021/07/02 14:35:31;;;;;;;23.02;10.05;;;22.10;65.50;;;;;;20814810;28;20030;-20
2021/07/02 14:45:32;;;;;;;22.45;9.15;;;22.10;65.50;;;;;;20813848;28;20068;-21
2021/07/02 14:55:35;;;;;;;24.35;9.90;;;22.10;65.60;;;;;;20823992;28;20030;-20
2021/07/02 15:05:36;;;;;;;25.75;10.65;;;22.10;65.70;;;;;;20823516;28;20021;-20
2021/07/02 15:15:37;;;;;;;34.47;9.50;;;22.10;65.70;;;;;;20820775;28;20083;-20
2021/07/02 15:25:38;;;;;;;25.83;11.07;;;21.90;65.60;;;;;;20820425;28;20038;-21
2021/07/02 15:35:38;;;;;;;20.48;8.90;;;21.90;65.80;;;;;;20815793;28;20060;-19
2021/07/02 15:45:39;;;;;;;21.63;10.70;;;21.90;65.70;;;;;;20818934;28;20053;-19
2021/07/02 15:55:39;;;;;;;17.70;8.73;;;21.80;65.80;;;;;;20811423;28;20025;-19
2021/07/02 16:05:41;;;;;;;30.83;11.93;;;21.90;65.90;;;;;;20813909;28;20468;-19
2021/07/02 16:15:42;;;;;;;27.98;12.18;;;21.90;66.20;;;;;;20817069;28;20030;-20
2021/07/02 16:25:43;;;;;;;31.35;11.68;;;21.90;66.30;;;;;;20817535;28;20034;-20
2021/07/02 16:35:44;;;;;;;23.77;11.37;;;21.90;66.40;;;;;;20818520;28;20491;-19
2021/07/02 16:45:45;;;;;;;29.65;10.88;;;22.00;66.90;;;;;;20797920;28;20124;-21
2021/07/02 16:55:45;;;;;;;32.35;10.48;;;22.00;67.10;;;;;;20823140;28;20120;-19
2021/07/02 17:05:46;;;;;;;39.65;11.35;;;22.00;67.10;;;;;;20831542;28;20057;-20
2021/07/02 17:15:47;;;;;;;29.83;10.80;;;22.00;66.90;;;;;;20831600;28;20057;-20
2021/07/02 17:25:48;;;;;;;21.52;10.40;;;21.90;66.60;;;;;;20830873;28;20041;-20
2021/07/02 17:35:48;;;;;;;18.10;8.45;;;21.90;66.60;;;;;;20829406;28;20033;-20
2021/07/02 17:45:49;;;;;;;24.88;10.85;;;21.80;66.40;;;;;;20829736;28;20389;-20
2021/07/02 17:55:51;;;;;;;18.40;9.38;;;21.90;66.40;;;;;;20828062;28;20091;-20
2021/07/02 18:05:51;;;;;;;17.75;8.35;;;21.80;66.50;;;;;;20827177;28;20037;-20
2021/07/02 18:15:52;;;;;;;21.77;8.73;;;21.80;66.60;;;;;;20826269;28;20036;-20
2021/07/02 18:25:52;;;;;;;18.47;8.40;;;21.80;66.80;;;;;;20825193;28;20318;-20
2021/07/02 18:35:53;;;;;;;13.73;7.55;;;21.80;67.50;;;;;;20818498;28;20030;-20
2021/07/02 18:45:54;;;;;;;18.35;8.85;;;21.80;68.00;;;;;;20814500;28;20033;-19
2021/07/02 18:55:54;;;;;;;21.95;8.45;;;21.80;68.10;;;;;;20812314;28;20591;-20
2021/07/02 19:05:55;;;;;;;14.98;8.40;;;21.80;68.10;;;;;;20833435;28;20049;-20
2021/07/02 19:15:56;;;;;;;15.32;7.18;;;21.80;68.00;;;;;;20828504;28;20062;-21
2021/07/02 19:25:57;;;;;;;18.38;8.57;;;21.80;68.00;;;;;;20827298;28;20034;-20
2021/07/02 19:35:58;;;;;;;17.73;7.95;;;21.80;67.50;;;;;;20830612;28;20030;-20
2021/07/02 19:45:59;;;;;;;13.70;7.97;;;21.80;67.50;;;;;;20816466;28;20041;-19
2021/07/02 19:56:01;;;;;;;9.80;7.05;;;21.80;67.60;;;;;;20832146;28;20069;-20
2021/07/02 20:06:02;;;;;;;11.73;8.40;;;21.80;67.70;;;;;;20803753;28;20052;-21
2021/07/02 20:16:03;;;;;;;10.20;6.47;;;21.80;66.70;;;;;;20823213;28;20037;-21
2021/07/02 20:26:03;;;;;;;7.82;7.00;;;21.70;66.60;;;;;;20838216;28;20518;-21
2021/07/02 20:36:06;;;;;;;13.32;7.47;;;21.60;65.90;;;;;;20836948;28;20044;-21
2021/07/02 20:46:06;;;;;;;8.68;6.55;;;21.60;65.80;;;;;;20835239;28;20033;-21
2021/07/02 20:56:07;;;;;;;9.25;7.22;;;21.60;65.80;;;;;;20832855;28;20036;-20
2021/07/02 21:06:07;;;;;;;9.75;6.22;;;21.50;65.70;;;;;;20832404;28;20041;-21
2021/07/02 21:16:09;;;;;;;9.70;6.78;;;21.50;65.60;;;;;;20831281;28;20526;-21
2021/07/02 21:26:10;;;;;;;10.18;6.68;;;21.40;65.50;;;;;;20830926;28;20728;-21
2021/07/02 21:36:11;;;;;;;9.18;7.68;;;21.40;65.50;;;;;;20828671;28;20029;-20
2021/07/02 21:46:12;;;;;;;11.40;7.38;;;21.40;65.50;;;;;;20829160;28;20503;-20
2021/07/02 21:56:13;;;;;;;10.52;7.38;;;21.40;65.40;;;;;;20828176;28;20670;-21
2021/07/02 22:06:13;;;;;;;7.60;6.05;;;21.40;65.20;;;;;;20827330;28;20503;-21
2021/07/02 22:16:14;;;;;;;10.30;7.20;;;21.40;65.40;;;;;;20827084;28;20411;-21
2021/07/02 22:26:14;;;;;;;12.27;7.45;;;21.30;65.10;;;;;;20827074;28;20090;-21
2021/07/02 22:36:15;;;;;;;8.07;6.93;;;21.30;65.00;;;;;;20827456;28;20104;-20
2021/07/02 22:46:16;;;;;;;8.95;7.25;;;21.30;65.10;;;;;;20825911;28;20037;-20
2021/07/02 22:56:16;;;;;;;8.93;7.47;;;21.30;65.10;;;;;;20822123;28;20025;-21
2021/07/02 23:06:17;;;;;;;8.85;7.43;;;21.20;65.00;;;;;;20823522;28;20049;-21
2021/07/02 23:16:17;;;;;;;13.63;8.73;;;21.20;64.50;;;;;;20823731;28;20404;-19
2021/07/02 23:26:18;;;;;;;10.73;8.23;;;21.20;64.50;;;;;;20821189;28;20607;-20
2021/07/02 23:36:19;;;;;;;8.67;7.77;;;21.20;64.40;;;;;;20821465;28;20025;-20
2021/07/02 23:46:19;;;;;;;18.13;8.63;;;21.20;64.20;;;;;;20822268;28;20484;-20
2021/07/02 23:56:20;;;;;;;8.98;7.85;;;21.10;64.30;;;;;;20820707;28;20488;-19
